sensor_id;sensor_type;location;lat;lon;timestamp;pressure;altitude;pressure_sealevel;temperature;humidity
8075;BME280;4080;42.676;23.372;2023-07-29T00:00:42;95001.34;;;21.32;94.30
8075;BME280;4080;42.676;23.372;2023-07-29T00:03:09;94997.00;;;21.28;93.41
8075;BME280;4080;42.676;23.372;2023-07-29T00:05:36;94993.06;;;21.13;94.35
8075;BME280;4080;42.676;23.372;2023-07-29T00:08:03;95003.31;;;21.11;95.18
8075;BME280;4080;42.676;23.372;2023-07-29T00:10:32;95005.22;;;20.98;95.31
8075;BME280;4080;42.676;23.372;2023-07-29T00:12:59;95004.19;;;20.91;95.57
8075;BME280;4080;42.676;23.372;2023-07-29T00:15:26;95005.41;;;20.81;95.35
8075;BME280;4080;42.676;23.372;2023-07-29T00:17:54;95004.72;;;20.72;95.63
8075;BME280;4080;42.676;23.372;2023-07-29T00:20:21;94979.06;;;20.50;95.80
8075;BME280;4080;42.676;23.372;2023-07-29T00:22:48;95008.38;;;20.67;96.38
8075;BME280;4080;42.676;23.372;2023-07-29T00:25:15;95010.06;;;20.60;96.23
8075;BME280;4080;42.676;23.372;2023-07-29T00:27:43;95004.31;;;20.49;97.83
8075;BME280;4080;42.676;23.372;2023-07-29T00:30:10;95003.72;;;20.43;98.31
8075;BME280;4080;42.676;23.372;2023-07-29T00:32:37;95002.81;;;20.39;98.10
8075;BME280;4080;42.676;23.372;2023-07-29T00:35:05;95003.78;;;20.35;98.42
8075;BME280;4080;42.676;23.372;2023-07-29T00:37:32;95000.00;;;20.36;99.85
8075;BME280;4080;42.676;23.372;2023-07-29T00:39:58;94960.69;;;20.28;98.89
8075;BME280;4080;42.676;23.372;2023-07-29T00:42:25;94997.59;;;20.43;99.76
8075;BME280;4080;42.676;23.372;2023-07-29T00:44:53;94991.19;;;20.56;100.00
8075;BME280;4080;42.676;23.372;2023-07-29T00:47:21;94996.00;;;20.63;98.83
8075;BME280;4080;42.676;23.372;2023-07-29T00:49:49;94988.44;;;20.44;100.00
8075;BME280;4080;42.676;23.372;2023-07-29T00:52:16;94991.28;;;20.60;100.00
8075;BME280;4080;42.676;23.372;2023-07-29T00:54:43;94979.75;;;20.47;99.28
8075;BME280;4080;42.676;23.372;2023-07-29T00:57:11;94980.88;;;20.25;100.00
8075;BME280;4080;42.676;23.372;2023-07-29T00:59:40;94988.22;;;20.49;100.00
8075;BME280;4080;42.676;23.372;2023-07-29T01:02:09;94995.94;;;20.84;99.82
8075;BME280;4080;42.676;23.372;2023-07-29T01:04:36;94985.91;;;21.17;98.07
8075;BME280;4080;42.676;23.372;2023-07-29T01:07:09;94976.66;;;21.51;95.14
8075;BME280;4080;42.676;23.372;2023-07-29T01:09:44;94984.88;;;21.83;92.36
8075;BME280;4080;42.676;23.372;2023-07-29T01:12:19;94984.44;;;21.81;91.63
8075;BME280;4080;42.676;23.372;2023-07-29T01:14:53;94985.09;;;21.78;89.36
8075;BME280;4080;42.676;23.372;2023-07-29T01:17:28;94991.16;;;21.75;89.12
8075;BME280;4080;42.676;23.372;2023-07-29T01:20:00;94957.28;;;21.58;88.89
8075;BME280;4080;42.676;23.372;2023-07-29T01:22:31;94990.44;;;21.90;88.78
8075;BME280;4080;42.676;23.372;2023-07-29T01:25:00;94990.44;;;21.90;88.96
8075;BME280;4080;42.676;23.372;2023-07-29T01:27:27;94974.78;;;21.92;87.22
8075;BME280;4080;42.676;23.372;2023-07-29T01:29:54;94990.41;;;22.02;86.70
8075;BME280;4080;42.676;23.372;2023-07-29T01:32:27;94989.56;;;21.86;86.13
8075;BME280;4080;42.676;23.372;2023-07-29T01:34:59;94989.19;;;21.99;86.77
8075;BME280;4080;42.676;23.372;2023-07-29T01:37:33;94986.16;;;22.13;85.20
8075;BME280;4080;42.676;23.372;2023-07-29T01:40:02;94931.50;;;21.81;85.15
8075;BME280;4080;42.676;23.372;2023-07-29T01:42:30;94986.19;;;22.29;83.65
8075;BME280;4080;42.676;23.372;2023-07-29T01:44:57;94982.16;;;22.35;81.98
8075;BME280;4080;42.676;23.372;2023-07-29T01:47:24;94993.09;;;22.42;81.91
8075;BME280;4080;42.676;23.372;2023-07-29T01:49:51;94992.59;;;22.52;81.08
8075;BME280;4080;42.676;23.372;2023-07-29T01:52:18;94989.84;;;22.65;80.07
8075;BME280;4080;42.676;23.372;2023-07-29T01:54:44;94990.47;;;22.74;78.95
8075;BME280;4080;42.676;23.372;2023-07-29T01:57:12;94990.56;;;22.77;78.43
8075;BME280;4080;42.676;23.372;2023-07-29T01:59:39;94960.34;;;22.52;78.44
8075;BME280;4080;42.676;23.372;2023-07-29T02:02:06;94989.22;;;22.55;77.27
8075;BME280;4080;42.676;23.372;2023-07-29T02:04:33;94984.88;;;22.23;78.43
8075;BME280;4080;42.676;23.372;2023-07-29T02:06:59;94990.84;;;22.16;79.66
8075;BME280;4080;42.676;23.372;2023-07-29T02:09:26;94991.72;;;22.20;79.99
8075;BME280;4080;42.676;23.372;2023-07-29T02:11:52;94994.25;;;22.29;80.38
8075;BME280;4080;42.676;23.372;2023-07-29T02:14:21;94991.78;;;22.36;79.73
8075;BME280;4080;42.676;23.372;2023-07-29T02:16:48;94999.88;;;22.24;79.35
8075;BME280;4080;42.676;23.372;2023-07-29T02:19:14;94991.41;;;21.97;81.83
8075;BME280;4080;42.676;23.372;2023-07-29T02:21:41;95003.19;;;21.93;82.98
8075;BME280;4080;42.676;23.372;2023-07-29T02:24:08;95001.13;;;21.74;82.65
8075;BME280;4080;42.676;23.372;2023-07-29T02:26:35;94995.00;;;21.49;85.52
8075;BME280;4080;42.676;23.372;2023-07-29T02:29:01;94989.28;;;21.51;87.04
8075;BME280;4080;42.676;23.372;2023-07-29T02:31:29;94992.66;;;21.48;85.98
8075;BME280;4080;42.676;23.372;2023-07-29T02:33:56;94994.44;;;21.44;87.75
8075;BME280;4080;42.676;23.372;2023-07-29T02:36:23;94994.88;;;21.46;87.21
8075;BME280;4080;42.676;23.372;2023-07-29T02:38:50;95000.22;;;21.58;87.71
8075;BME280;4080;42.676;23.372;2023-07-29T02:41:16;94997.75;;;21.65;87.54
8075;BME280;4080;42.676;23.372;2023-07-29T02:43:47;94999.75;;;21.80;86.52
8075;BME280;4080;42.676;23.372;2023-07-29T02:46:14;94995.94;;;22.06;85.41
8075;BME280;4080;42.676;23.372;2023-07-29T02:48:42;94989.38;;;22.19;84.54
8075;BME280;4080;42.676;23.372;2023-07-29T02:51:09;94988.78;;;22.25;84.23
8075;BME280;4080;42.676;23.372;2023-07-29T02:53:35;94997.47;;;22.35;83.16
8075;BME280;4080;42.676;23.372;2023-07-29T02:56:03;94984.63;;;21.88;83.54
8075;BME280;4080;42.676;23.372;2023-07-29T02:58:29;94998.78;;;21.48;87.96
8075;BME280;4080;42.676;23.372;2023-07-29T03:01:00;94997.41;;;21.05;91.32
8075;BME280;4080;42.676;23.372;2023-07-29T03:03:27;94993.31;;;20.63;94.63
8075;BME280;4080;42.676;23.372;2023-07-29T03:05:59;95004.31;;;20.28;97.90
8075;BME280;4080;42.676;23.372;2023-07-29T03:08:25;95005.97;;;20.00;99.81
8075;BME280;4080;42.676;23.372;2023-07-29T03:10:52;95014.31;;;19.77;100.00
8075;BME280;4080;42.676;23.372;2023-07-29T03:13:19;95010.50;;;19.58;100.00
8075;BME280;4080;42.676;23.372;2023-07-29T03:15:45;95009.16;;;19.43;100.00
8075;BME280;4080;42.676;23.372;2023-07-29T03:18:12;95018.78;;;19.35;100.00
8075;BME280;4080;42.676;23.372;2023-07-29T03:20:39;95021.03;;;19.24;100.00
8075;BME280;4080;42.676;23.372;2023-07-29T03:23:07;95014.81;;;19.12;100.00
8075;BME280;4080;42.676;23.372;2023-07-29T03:25:33;95024.91;;;18.98;100.00
8075;BME280;4080;42.676;23.372;2023-07-29T03:28:00;95021.50;;;18.88;100.00
8075;BME280;4080;42.676;23.372;2023-07-29T03:30:27;95017.25;;;18.87;100.00
8075;BME280;4080;42.676;23.372;2023-07-29T03:32:53;95014.25;;;18.89;100.00
8075;BME280;4080;42.676;23.372;2023-07-29T03:35:20;95014.66;;;19.08;100.00
8075;BME280;4080;42.676;23.372;2023-07-29T03:37:47;95024.22;;;19.18;100.00
8075;BME280;4080;42.676;23.372;2023-07-29T03:40:15;95017.09;;;19.22;100.00
8075;BME280;4080;42.676;23.372;2023-07-29T03:42:42;95016.91;;;19.27;100.00
8075;BME280;4080;42.676;23.372;2023-07-29T03:45:09;95025.56;;;19.33;100.00
8075;BME280;4080;42.676;23.372;2023-07-29T03:47:36;95022.56;;;19.34;100.00
8075;BME280;4080;42.676;23.372;2023-07-29T03:50:03;95014.41;;;19.31;100.00
8075;BME280;4080;42.676;23.372;2023-07-29T03:52:29;95018.53;;;19.19;100.00
8075;BME280;4080;42.676;23.372;2023-07-29T03:54:56;95023.00;;;19.07;100.00
8075;BME280;4080;42.676;23.372;2023-07-29T03:57:24;95021.16;;;18.99;100.00
8075;BME280;4080;42.676;23.372;2023-07-29T03:59:51;95024.44;;;18.96;100.00
8075;BME280;4080;42.676;23.372;2023-07-29T04:02:18;95015.31;;;18.97;100.00
8075;BME280;4080;42.676;23.372;2023-07-29T04:04:45;95011.94;;;19.17;100.00
8075;BME280;4080;42.676;23.372;2023-07-29T04:07:13;95019.75;;;19.69;100.00
8075;BME280;4080;42.676;23.372;2023-07-29T04:09:39;95011.47;;;20.24;100.00
8075;BME280;4080;42.676;23.372;2023-07-29T04:12:08;95027.84;;;20.76;98.30
8075;BME280;4080;42.676;23.372;2023-07-29T04:14:36;95031.97;;;21.31;95.37
8075;BME280;4080;42.676;23.372;2023-07-29T04:17:03;95030.41;;;21.79;92.35
8075;BME280;4080;42.676;23.372;2023-07-29T04:19:30;95031.88;;;22.29;89.14
8075;BME280;4080;42.676;23.372;2023-07-29T04:21:57;95040.91;;;22.65;85.71
8075;BME280;4080;42.676;23.372;2023-07-29T04:24:23;95034.97;;;22.99;82.57
8075;BME280;4080;42.676;23.372;2023-07-29T04:26:50;95035.81;;;23.19;80.79
8075;BME280;4080;42.676;23.372;2023-07-29T04:29:17;94993.56;;;23.19;78.86
8075;BME280;4080;42.676;23.372;2023-07-29T04:31:45;95024.56;;;23.61;76.30
8075;BME280;4080;42.676;23.372;2023-07-29T04:34:12;95034.94;;;23.78;74.90
8075;BME280;4080;42.676;23.372;2023-07-29T04:36:38;95038.22;;;23.87;73.87
8075;BME280;4080;42.676;23.372;2023-07-29T04:39:05;95040.66;;;23.92;72.28
8075;BME280;4080;42.676;23.372;2023-07-29T04:41:33;95038.47;;;23.98;72.03
8075;BME280;4080;42.676;23.372;2023-07-29T04:43:59;95042.88;;;24.06;72.06
8075;BME280;4080;42.676;23.372;2023-07-29T04:46:26;95047.16;;;24.26;70.83
8075;BME280;4080;42.676;23.372;2023-07-29T04:48:54;95051.63;;;24.54;70.44
8075;BME280;4080;42.676;23.372;2023-07-29T04:51:21;94998.47;;;24.54;68.62
8075;BME280;4080;42.676;23.372;2023-07-29T04:53:48;95045.91;;;24.78;67.60
8075;BME280;4080;42.676;23.372;2023-07-29T04:56:14;95042.59;;;24.65;68.27
8075;BME280;4080;42.676;23.372;2023-07-29T04:58:41;95049.19;;;24.68;68.52
8075;BME280;4080;42.676;23.372;2023-07-29T05:01:08;95048.75;;;24.85;67.94
8075;BME280;4080;42.676;23.372;2023-07-29T05:03:35;95051.28;;;24.97;65.48
8075;BME280;4080;42.676;23.372;2023-07-29T05:06:03;95029.34;;;24.99;65.20
8075;BME280;4080;42.676;23.372;2023-07-29T05:08:30;95060.75;;;25.30;64.44
8075;BME280;4080;42.676;23.372;2023-07-29T05:10:57;95063.69;;;25.44;64.39
8075;BME280;4080;42.676;23.372;2023-07-29T05:13:24;95014.84;;;25.30;62.40
8075;BME280;4080;42.676;23.372;2023-07-29T05:15:51;95066.78;;;25.69;61.89
8075;BME280;4080;42.676;23.372;2023-07-29T05:18:18;95065.47;;;25.59;62.06
8075;BME280;4080;42.676;23.372;2023-07-29T05:20:45;95067.53;;;25.43;63.00
8075;BME280;4080;42.676;23.372;2023-07-29T05:23:14;95066.09;;;25.49;64.65
8075;BME280;4080;42.676;23.372;2023-07-29T05:25:41;95055.91;;;25.65;63.22
8075;BME280;4080;42.676;23.372;2023-07-29T05:28:07;95068.22;;;25.86;61.28
8075;BME280;4080;42.676;23.372;2023-07-29T05:30:35;95069.84;;;25.90;61.33
8075;BME280;4080;42.676;23.372;2023-07-29T05:33:03;95030.34;;;25.59;61.62
8075;BME280;4080;42.676;23.372;2023-07-29T05:35:30;95070.16;;;25.62;62.71
8075;BME280;4080;42.676;23.372;2023-07-29T05:37:57;95072.28;;;25.73;63.16
8075;BME280;4080;42.676;23.372;2023-07-29T05:40:25;95074.16;;;25.95;61.86
8075;BME280;4080;42.676;23.372;2023-07-29T05:42:52;95082.19;;;26.18;60.04
8075;BME280;4080;42.676;23.372;2023-07-29T05:45:19;95074.38;;;26.36;59.45
8075;BME280;4080;42.676;23.372;2023-07-29T05:47:46;95082.31;;;26.55;58.62
8075;BME280;4080;42.676;23.372;2023-07-29T05:50:13;95079.38;;;26.64;58.23
8075;BME280;4080;42.676;23.372;2023-07-29T05:52:39;95074.88;;;26.78;57.84
8075;BME280;4080;42.676;23.372;2023-07-29T05:55:06;95077.75;;;26.92;56.40
8075;BME280;4080;42.676;23.372;2023-07-29T05:57:35;95072.84;;;27.02;56.71
8075;BME280;4080;42.676;23.372;2023-07-29T06:00:02;95079.78;;;26.99;58.38
8075;BME280;4080;42.676;23.372;2023-07-29T06:02:29;95078.09;;;26.91;58.40
8075;BME280;4080;42.676;23.372;2023-07-29T06:04:55;95073.41;;;26.84;58.69
8075;BME280;4080;42.676;23.372;2023-07-29T06:07:22;95075.59;;;27.05;57.64
8075;BME280;4080;42.676;23.372;2023-07-29T06:09:49;95078.91;;;27.25;56.87
8075;BME280;4080;42.676;23.372;2023-07-29T06:12:15;95079.38;;;27.34;56.73
8075;BME280;4080;42.676;23.372;2023-07-29T06:14:43;95073.69;;;27.50;56.01
8075;BME280;4080;42.676;23.372;2023-07-29T06:17:10;95080.34;;;27.56;56.31
8075;BME280;4080;42.676;23.372;2023-07-29T06:19:37;95073.63;;;27.43;55.57
8075;BME280;4080;42.676;23.372;2023-07-29T06:22:04;95069.38;;;27.42;55.68
8075;BME280;4080;42.676;23.372;2023-07-29T06:24:31;95069.16;;;27.61;54.58
8075;BME280;4080;42.676;23.372;2023-07-29T06:26:58;95073.16;;;27.78;53.88
8075;BME280;4080;42.676;23.372;2023-07-29T06:29:25;95073.72;;;27.98;53.10
8075;BME280;4080;42.676;23.372;2023-07-29T06:31:53;95074.97;;;28.14;53.78
8075;BME280;4080;42.676;23.372;2023-07-29T06:34:20;95069.53;;;28.14;52.75
8075;BME280;4080;42.676;23.372;2023-07-29T06:36:47;95050.56;;;28.14;52.50
8075;BME280;4080;42.676;23.372;2023-07-29T06:39:14;95058.88;;;28.43;52.01
8075;BME280;4080;42.676;23.372;2023-07-29T06:41:41;95056.25;;;28.61;51.62
8075;BME280;4080;42.676;23.372;2023-07-29T06:44:07;95062.06;;;28.59;49.74
8075;BME280;4080;42.676;23.372;2023-07-29T06:46:34;95058.47;;;28.41;51.76
8075;BME280;4080;42.676;23.372;2023-07-29T06:49:02;95050.81;;;28.57;51.32
8075;BME280;4080;42.676;23.372;2023-07-29T06:51:29;95054.75;;;28.77;50.34
8075;BME280;4080;42.676;23.372;2023-07-29T06:53:59;95046.31;;;28.97;49.17
8075;BME280;4080;42.676;23.372;2023-07-29T06:56:26;95049.03;;;29.08;49.47
8075;BME280;4080;42.676;23.372;2023-07-29T06:58:53;95047.13;;;29.15;49.91
8075;BME280;4080;42.676;23.372;2023-07-29T07:01:20;95055.63;;;29.03;49.46
8075;BME280;4080;42.676;23.372;2023-07-29T07:03:46;95054.09;;;29.09;48.89
8075;BME280;4080;42.676;23.372;2023-07-29T07:06:14;95050.25;;;29.28;48.90
8075;BME280;4080;42.676;23.372;2023-07-29T07:08:41;95053.78;;;29.50;48.13
8075;BME280;4080;42.676;23.372;2023-07-29T07:11:09;95051.88;;;29.72;46.38
8075;BME280;4080;42.676;23.372;2023-07-29T07:13:36;95057.28;;;29.89;45.50
8075;BME280;4080;42.676;23.372;2023-07-29T07:16:02;95054.16;;;29.84;46.04
8075;BME280;4080;42.676;23.372;2023-07-29T07:18:29;95058.44;;;29.88;45.41
8075;BME280;4080;42.676;23.372;2023-07-29T07:20:56;95056.88;;;29.91;45.18
8075;BME280;4080;42.676;23.372;2023-07-29T07:23:24;95051.03;;;29.92;44.45
8075;BME280;4080;42.676;23.372;2023-07-29T07:25:51;95062.72;;;30.11;43.83
8075;BME280;4080;42.676;23.372;2023-07-29T07:28:17;95050.25;;;30.31;43.31
8075;BME280;4080;42.676;23.372;2023-07-29T07:30:44;95052.53;;;30.43;42.71
8075;BME280;4080;42.676;23.372;2023-07-29T07:33:11;95050.94;;;30.53;42.44
8075;BME280;4080;42.676;23.372;2023-07-29T07:35:37;95050.50;;;30.72;41.75
8075;BME280;4080;42.676;23.372;2023-07-29T07:38:04;95038.00;;;30.82;40.96
8075;BME280;4080;42.676;23.372;2023-07-29T07:40:34;95043.41;;;30.93;40.48
8075;BME280;4080;42.676;23.372;2023-07-29T07:43:01;95036.78;;;30.94;40.43
8075;BME280;4080;42.676;23.372;2023-07-29T07:45:27;95043.06;;;30.80;41.52
8075;BME280;4080;42.676;23.372;2023-07-29T07:47:54;95015.81;;;30.83;41.20
8075;BME280;4080;42.676;23.372;2023-07-29T07:50:21;95045.19;;;31.24;39.50
8075;BME280;4080;42.676;23.372;2023-07-29T07:52:49;95048.72;;;31.17;39.50
8075;BME280;4080;42.676;23.372;2023-07-29T07:55:16;95043.63;;;31.23;39.35
8075;BME280;4080;42.676;23.372;2023-07-29T07:57:44;95042.31;;;31.42;39.38
8075;BME280;4080;42.676;23.372;2023-07-29T08:00:12;95046.50;;;31.57;38.85
8075;BME280;4080;42.676;23.372;2023-07-29T08:02:41;95037.81;;;31.69;38.75
8075;BME280;4080;42.676;23.372;2023-07-29T08:05:08;95050.28;;;31.74;37.94
8075;BME280;4080;42.676;23.372;2023-07-29T08:07:35;95045.91;;;31.84;38.37
8075;BME280;4080;42.676;23.372;2023-07-29T08:10:01;95035.81;;;31.80;37.93
8075;BME280;4080;42.676;23.372;2023-07-29T08:12:28;95050.00;;;32.06;36.92
8075;BME280;4080;42.676;23.372;2023-07-29T08:14:56;95050.56;;;32.28;36.21
8075;BME280;4080;42.676;23.372;2023-07-29T08:17:23;95054.31;;;32.41;35.82
8075;BME280;4080;42.676;23.372;2023-07-29T08:19:50;95051.56;;;32.45;35.87
8075;BME280;4080;42.676;23.372;2023-07-29T08:22:16;95052.31;;;32.49;36.75
8075;BME280;4080;42.676;23.372;2023-07-29T08:24:43;95053.94;;;32.73;34.67
8075;BME280;4080;42.676;23.372;2023-07-29T08:27:10;95058.13;;;32.85;34.32
8075;BME280;4080;42.676;23.372;2023-07-29T08:29:36;95046.25;;;32.98;32.98
8075;BME280;4080;42.676;23.372;2023-07-29T08:32:05;95048.88;;;33.06;32.38
8075;BME280;4080;42.676;23.372;2023-07-29T08:34:32;95049.03;;;33.22;32.02
8075;BME280;4080;42.676;23.372;2023-07-29T08:36:58;95048.13;;;33.32;31.87
8075;BME280;4080;42.676;23.372;2023-07-29T08:39:25;95044.63;;;33.31;32.37
8075;BME280;4080;42.676;23.372;2023-07-29T08:41:56;95043.28;;;33.43;31.65
8075;BME280;4080;42.676;23.372;2023-07-29T08:44:26;94907.25;;;32.47;30.67
8075;BME280;4080;42.676;23.372;2023-07-29T08:46:56;95043.78;;;33.34;30.86
8075;BME280;4080;42.676;23.372;2023-07-29T08:49:25;95032.94;;;33.27;31.96
8075;BME280;4080;42.676;23.372;2023-07-29T08:51:53;95025.16;;;33.26;31.62
8075;BME280;4080;42.676;23.372;2023-07-29T08:54:21;95035.47;;;33.15;31.11
8075;BME280;4080;42.676;23.372;2023-07-29T08:56:48;95036.50;;;33.24;31.10
8075;BME280;4080;42.676;23.372;2023-07-29T08:59:15;95025.06;;;33.33;31.41
8075;BME280;4080;42.676;23.372;2023-07-29T09:01:42;95020.47;;;33.26;30.78
8075;BME280;4080;42.676;23.372;2023-07-29T09:04:09;95019.63;;;33.02;32.80
8075;BME280;4080;42.676;23.372;2023-07-29T09:06:39;95020.75;;;33.05;31.73
8075;BME280;4080;42.676;23.372;2023-07-29T09:09:07;95023.13;;;33.07;31.20
8075;BME280;4080;42.676;23.372;2023-07-29T09:11:34;94998.28;;;33.21;30.70
8075;BME280;4080;42.676;23.372;2023-07-29T09:14:01;95006.25;;;33.62;31.11
8075;BME280;4080;42.676;23.372;2023-07-29T09:16:28;95008.59;;;33.87;30.34
8075;BME280;4080;42.676;23.372;2023-07-29T09:18:55;95011.72;;;34.09;28.98
8075;BME280;4080;42.676;23.372;2023-07-29T09:21:27;95013.41;;;34.22;26.96
8075;BME280;4080;42.676;23.372;2023-07-29T09:23:55;95002.34;;;34.30;27.22
8075;BME280;4080;42.676;23.372;2023-07-29T09:26:22;95002.16;;;34.40;26.79
8075;BME280;4080;42.676;23.372;2023-07-29T09:28:52;94999.63;;;34.49;26.21
8075;BME280;4080;42.676;23.372;2023-07-29T09:31:19;94957.97;;;34.18;26.51
8075;BME280;4080;42.676;23.372;2023-07-29T09:33:46;95002.28;;;34.33;26.39
8075;BME280;4080;42.676;23.372;2023-07-29T09:36:13;94975.84;;;34.23;26.40
8075;BME280;4080;42.676;23.372;2023-07-29T09:38:40;94999.63;;;34.49;27.35
8075;BME280;4080;42.676;23.372;2023-07-29T09:41:11;94993.78;;;34.67;26.98
8075;BME280;4080;42.676;23.372;2023-07-29T09:43:39;94990.72;;;34.81;26.75
8075;BME280;4080;42.676;23.372;2023-07-29T09:46:06;94984.00;;;34.86;27.38
8075;BME280;4080;42.676;23.372;2023-07-29T09:48:34;94989.06;;;34.88;26.52
8075;BME280;4080;42.676;23.372;2023-07-29T09:51:09;94981.69;;;34.84;25.55
8075;BME280;4080;42.676;23.372;2023-07-29T09:53:39;94975.22;;;34.95;25.64
8075;BME280;4080;42.676;23.372;2023-07-29T09:56:08;94978.38;;;34.93;25.23
8075;BME280;4080;42.676;23.372;2023-07-29T09:58:34;94977.69;;;34.69;25.86
8075;BME280;4080;42.676;23.372;2023-07-29T10:01:03;94969.28;;;34.40;26.22
8075;BME280;4080;42.676;23.372;2023-07-29T10:03:31;94972.63;;;34.08;26.61
8075;BME280;4080;42.676;23.372;2023-07-29T10:06:00;94975.53;;;34.01;26.96
8075;BME280;4080;42.676;23.372;2023-07-29T10:08:27;94969.69;;;33.76;26.06
8075;BME280;4080;42.676;23.372;2023-07-29T10:10:54;94972.25;;;33.63;25.92
8075;BME280;4080;42.676;23.372;2023-07-29T10:13:24;94962.75;;;33.71;26.78
8075;BME280;4080;42.676;23.372;2023-07-29T10:15:53;94963.03;;;34.00;27.38
8075;BME280;4080;42.676;23.372;2023-07-29T10:18:22;94955.19;;;34.42;26.07
8075;BME280;4080;42.676;23.372;2023-07-29T10:20:50;94963.41;;;34.78;24.70
8075;BME280;4080;42.676;23.372;2023-07-29T10:23:18;94954.16;;;34.92;25.00
8075;BME280;4080;42.676;23.372;2023-07-29T10:25:47;94947.56;;;35.05;24.33
8075;BME280;4080;42.676;23.372;2023-07-29T10:28:17;94947.38;;;35.12;24.61
8075;BME280;4080;42.676;23.372;2023-07-29T10:30:46;94940.25;;;35.15;24.70
8075;BME280;4080;42.676;23.372;2023-07-29T10:33:13;94936.69;;;35.34;24.66
8075;BME280;4080;42.676;23.372;2023-07-29T10:35:41;94929.69;;;35.33;24.38
8075;BME280;4080;42.676;23.372;2023-07-29T10:38:08;94932.56;;;35.26;23.96
8075;BME280;4080;42.676;23.372;2023-07-29T10:40:45;94929.72;;;35.13;24.03
8075;BME280;4080;42.676;23.372;2023-07-29T10:43:14;94922.28;;;35.14;24.27
8075;BME280;4080;42.676;23.372;2023-07-29T10:45:46;94920.75;;;35.29;24.48
8075;BME280;4080;42.676;23.372;2023-07-29T10:48:39;94915.44;;;35.38;24.24
8075;BME280;4080;42.676;23.372;2023-07-29T10:51:25;94923.41;;;35.33;23.17
8075;BME280;4080;42.676;23.372;2023-07-29T10:53:52;94917.81;;;35.04;23.40
8075;BME280;4080;42.676;23.372;2023-07-29T10:56:26;94912.03;;;34.82;24.34
8075;BME280;4080;42.676;23.372;2023-07-29T10:58:55;94911.22;;;34.85;24.34
8075;BME280;4080;42.676;23.372;2023-07-29T11:01:29;94877.69;;;34.77;24.16
8075;BME280;4080;42.676;23.372;2023-07-29T11:04:25;94910.13;;;34.99;24.00
8075;BME280;4080;42.676;23.372;2023-07-29T11:07:23;94905.16;;;34.94;23.95
8075;BME280;4080;42.676;23.372;2023-07-29T11:10:02;94893.63;;;34.82;23.29
8075;BME280;4080;42.676;23.372;2023-07-29T11:12:44;94900.88;;;34.93;24.12
8075;BME280;4080;42.676;23.372;2023-07-29T11:15:15;94887.50;;;34.95;23.96
8075;BME280;4080;42.676;23.372;2023-07-29T11:17:44;94893.22;;;35.16;24.46
8075;BME280;4080;42.676;23.372;2023-07-29T11:20:12;94887.34;;;35.34;24.09
8075;BME280;4080;42.676;23.372;2023-07-29T11:22:39;94896.06;;;35.45;24.00
8075;BME280;4080;42.676;23.372;2023-07-29T11:25:08;94890.91;;;35.31;23.12
8075;BME280;4080;42.676;23.372;2023-07-29T11:27:35;94892.44;;;34.83;22.73
8075;BME280;4080;42.676;23.372;2023-07-29T11:30:04;94896.19;;;34.17;24.17
8075;BME280;4080;42.676;23.372;2023-07-29T11:32:32;94889.19;;;34.16;24.17
8075;BME280;4080;42.676;23.372;2023-07-29T11:35:03;94884.41;;;34.40;24.62
8075;BME280;4080;42.676;23.372;2023-07-29T11:37:30;94886.13;;;34.34;23.96
8075;BME280;4080;42.676;23.372;2023-07-29T11:39:57;94877.56;;;34.48;24.17
8075;BME280;4080;42.676;23.372;2023-07-29T11:42:26;94877.34;;;34.75;24.14
8075;BME280;4080;42.676;23.372;2023-07-29T11:44:52;94892.09;;;34.81;24.09
8075;BME280;4080;42.676;23.372;2023-07-29T11:47:19;94876.63;;;34.91;24.34
8075;BME280;4080;42.676;23.372;2023-07-29T11:49:46;94872.75;;;34.89;24.11
8075;BME280;4080;42.676;23.372;2023-07-29T11:52:14;94852.34;;;34.73;24.76
8075;BME280;4080;42.676;23.372;2023-07-29T11:54:44;94865.53;;;34.62;25.19
8075;BME280;4080;42.676;23.372;2023-07-29T11:57:12;94864.06;;;34.58;25.12
8075;BME280;4080;42.676;23.372;2023-07-29T11:59:40;94868.16;;;34.49;24.50
8075;BME280;4080;42.676;23.372;2023-07-29T12:02:10;94865.81;;;34.32;24.47
8075;BME280;4080;42.676;23.372;2023-07-29T12:04:38;94857.53;;;34.15;24.03
8075;BME280;4080;42.676;23.372;2023-07-29T12:07:05;94836.16;;;33.71;23.76
8075;BME280;4080;42.676;23.372;2023-07-29T12:09:34;94856.22;;;33.84;23.97
8075;BME280;4080;42.676;23.372;2023-07-29T12:12:02;94853.97;;;33.99;24.64
8075;BME280;4080;42.676;23.372;2023-07-29T12:14:29;94850.94;;;33.93;24.73
8075;BME280;4080;42.676;23.372;2023-07-29T12:16:55;94849.41;;;33.92;24.35
8075;BME280;4080;42.676;23.372;2023-07-29T12:19:22;94847.16;;;33.87;24.29
8075;BME280;4080;42.676;23.372;2023-07-29T12:21:50;94838.66;;;33.81;23.43
8075;BME280;4080;42.676;23.372;2023-07-29T12:24:17;94841.00;;;33.83;23.72
8075;BME280;4080;42.676;23.372;2023-07-29T12:26:47;94836.41;;;33.96;23.89
8075;BME280;4080;42.676;23.372;2023-07-29T12:29:14;94827.56;;;34.08;23.50
8075;BME280;4080;42.676;23.372;2023-07-29T12:31:42;94831.03;;;34.29;23.38
8075;BME280;4080;42.676;23.372;2023-07-29T12:34:08;94837.00;;;34.43;23.91
8075;BME280;4080;42.676;23.372;2023-07-29T12:36:43;94829.31;;;34.54;23.60
8075;BME280;4080;42.676;23.372;2023-07-29T12:39:18;94828.22;;;34.68;23.52
8075;BME280;4080;42.676;23.372;2023-07-29T12:41:47;94803.03;;;34.57;23.12
8075;BME280;4080;42.676;23.372;2023-07-29T12:44:15;94835.25;;;34.85;22.63
8075;BME280;4080;42.676;23.372;2023-07-29T12:46:41;94823.44;;;34.89;22.76
8075;BME280;4080;42.676;23.372;2023-07-29T12:49:08;94828.84;;;34.92;22.59
8075;BME280;4080;42.676;23.372;2023-07-29T12:51:35;94830.63;;;34.99;22.56
8075;BME280;4080;42.676;23.372;2023-07-29T12:54:02;94800.13;;;34.64;22.79
8075;BME280;4080;42.676;23.372;2023-07-29T12:56:29;94825.31;;;34.75;22.78
8075;BME280;4080;42.676;23.372;2023-07-29T12:58:57;94830.25;;;34.80;22.45
8075;BME280;4080;42.676;23.372;2023-07-29T13:01:24;94830.81;;;34.92;22.41
8075;BME280;4080;42.676;23.372;2023-07-29T13:03:51;94832.69;;;34.95;22.42
8075;BME280;4080;42.676;23.372;2023-07-29T13:06:21;94825.59;;;34.97;22.81
8075;BME280;4080;42.676;23.372;2023-07-29T13:08:48;94826.34;;;34.98;22.40
8075;BME280;4080;42.676;23.372;2023-07-29T13:11:16;94795.97;;;34.92;22.50
8075;BME280;4080;42.676;23.372;2023-07-29T13:13:42;94819.81;;;35.24;22.21